Time;durP1;ratioP1;P1;durP2;ratioP2;P2;SDS_P1;SDS_P2;PMS_P1;PMS_P2;Temp;Humidity;BMP_temperature;BMP_pressure;BME280_temperature;BME280_humidity;BME280_pressure;Samples;Min_cycle;Max_cycle;Signal;HPM_P1;HPM_P2
2022/05/01 00:01:11;;;;;;;13.30;7.57;;;;;;;;;;5025221;28;20427;-58
2022/05/01 00:03:39;;;;;;;15.02;8.57;;;;;;;;;;5024661;28;20770;-58
2022/05/01 00:06:08;;;;;;;13.93;7.88;;;;;;;;;;5025547;28;20045;-58
2022/05/01 00:08:35;;;;;;;15.20;7.72;;;;;;;;;;5025164;28;20044;-58
2022/05/01 00:11:02;;;;;;;11.43;7.38;;;;;;;;;;5024738;28;20061;-58
2022/05/01 00:13:29;;;;;;;13.52;7.18;;;;;;;;;;5025869;28;20120;-58
2022/05/01 00:15:56;;;;;;;12.05;7.25;;;;;;;;;;5025103;28;20061;-58
2022/05/01 00:18:22;;;;;;;11.52;8.13;;;;;;;;;;5025424;28;20547;-58
2022/05/01 00:20:48;;;;;;;13.48;8.27;;;;;;;;;;5007307;28;20377;-58
2022/05/01 00:23:15;;;;;;;12.88;7.45;;;;;;;;;;5025176;28;20484;-58
2022/05/01 00:25:42;;;;;;;11.55;7.35;;;;;;;;;;5023777;28;20495;-58
2022/05/01 00:28:09;;;;;;;15.68;7.78;;;;;;;;;;5025261;28;20056;-58
2022/05/01 00:30:36;;;;;;;12.80;8.05;;;;;;;;;;5006766;28;20050;-58
2022/05/01 00:38:33;;;;;;;14.00;7.57;;;;;;;;;;5030902;28;20040;-59
2022/05/01 00:40:59;;;;;;;12.90;7.35;;;;;;;;;;5024658;28;20092;-58
2022/05/01 00:43:25;;;;;;;16.05;7.95;;;;;;;;;;5025369;28;20117;-58
2022/05/01 00:45:52;;;;;;;11.23;7.97;;;;;;;;;;5024410;28;20565;-58
2022/05/01 00:48:18;;;;;;;13.40;8.50;;;;;;;;;;5006963;28;20045;-58
2022/05/01 00:50:44;;;;;;;17.80;8.88;;;;;;;;;;5024733;28;20727;-58
2022/05/01 00:53:10;;;;;;;12.60;8.38;;;;;;;;;;5024262;28;20480;-58
2022/05/01 00:55:37;;;;;;;14.40;8.57;;;;;;;;;;5005819;28;20412;-58
2022/05/01 00:58:05;;;;;;;12.93;8.32;;;;;;;;;;5024081;28;20045;-58
2022/05/01 01:00:32;;;;;;;12.93;8.48;;;;;;;;;;5024560;28;20438;-58
2022/05/01 01:02:58;;;;;;;14.40;9.38;;;;;;;;;;5024596;28;20505;-58
2022/05/01 01:05:25;;;;;;;16.60;8.45;;;;;;;;;;5024296;28;20046;-58
2022/05/01 01:07:52;;;;;;;13.35;8.95;;;;;;;;;;5023514;28;20242;-58
2022/05/01 01:10:19;;;;;;;12.27;8.53;;;;;;;;;;5023383;28;20129;-58
2022/05/01 01:12:54;;;;;;;12.95;8.90;;;;;;;;;;5024127;28;20045;-58
2022/05/01 01:15:23;;;;;;;16.35;9.70;;;;;;;;;;5024210;28;20068;-58
2022/05/01 01:17:52;;;;;;;21.17;9.82;;;;;;;;;;5023741;28;20124;-57
2022/05/01 01:20:18;;;;;;;15.65;10.32;;;;;;;;;;5024190;28;20123;-57
2022/05/01 01:22:47;;;;;;;16.88;9.80;;;;;;;;;;5024030;28;20046;-57
2022/05/01 01:25:13;;;;;;;;;;;;;;;;;;5024093;28;20630;-57
2022/05/01 01:27:40;;;;;;;16.50;10.60;;;;;;;;;;5023783;28;19940;-58
2022/05/01 01:32:52;;;;;;;18.73;10.23;;;;;;;;;;5031106;28;20503;-57
2022/05/01 01:35:21;;;;;;;22.08;10.73;;;;;;;;;;5024243;28;20495;-58
2022/05/01 01:37:49;;;;;;;18.58;11.25;;;;;;;;;;5022891;28;20483;-58
2022/05/01 01:40:18;;;;;;;18.65;10.75;;;;;;;;;;5023207;28;20140;-57
2022/05/01 01:42:46;;;;;;;15.68;10.07;;;;;;;;;;5022779;28;20049;-58
2022/05/01 01:45:12;;;;;;;23.43;11.27;;;;;;;;;;5024334;28;20124;-58
2022/05/01 01:47:39;;;;;;;17.20;10.88;;;;;;;;;;5023923;28;20080;-57
2022/05/01 01:50:05;;;;;;;16.90;10.77;;;;;;;;;;5023999;28;20124;-58
2022/05/01 01:52:33;;;;;;;17.55;10.57;;;;;;;;;;5023686;28;20045;-58
2022/05/01 01:55:00;;;;;;;17.63;10.77;;;;;;;;;;5023270;28;20556;-58
2022/05/01 01:57:27;;;;;;;20.95;11.52;;;;;;;;;;5023464;28;20049;-58
2022/05/01 01:59:53;;;;;;;19.15;11.68;;;;;;;;;;5006099;28;20045;-57
2022/05/01 02:02:19;;;;;;;17.88;11.48;;;;;;;;;;5023992;28;20484;-58
2022/05/01 02:04:45;;;;;;;21.15;12.25;;;;;;;;;;5023610;28;20050;-57
2022/05/01 02:07:11;;;;;;;21.30;12.48;;;;;;;;;;5023802;28;20042;-58
2022/05/01 02:09:38;;;;;;;19.75;11.82;;;;;;;;;;5022327;28;20091;-57
2022/05/01 02:12:08;;;;;;;19.98;12.13;;;;;;;;;;5023350;28;20041;-58
2022/05/01 02:14:34;;;;;;;22.25;11.98;;;;;;;;;;5023612;28;20152;-57
2022/05/01 02:17:02;;;;;;;19.40;12.00;;;;;;;;;;5023792;28;20065;-58
2022/05/01 02:19:29;;;;;;;18.40;11.80;;;;;;;;;;5023961;28;20045;-58
2022/05/01 02:21:55;;;;;;;19.15;11.65;;;;;;;;;;5023883;28;20044;-57
2022/05/01 02:24:23;;;;;;;24.27;12.65;;;;;;;;;;5022197;28;20498;-58
2022/05/01 02:26:50;;;;;;;18.77;12.45;;;;;;;;;;5023447;28;20060;-58
2022/05/01 02:29:16;;;;;;;22.77;12.80;;;;;;;;;;5023760;28;20057;-58
2022/05/01 02:31:43;;;;;;;18.92;12.18;;;;;;;;;;5023479;28;20045;-58
2022/05/01 02:34:09;;;;;;;21.13;12.02;;;;;;;;;;5023861;28;20060;-57
2022/05/01 02:36:36;;;;;;;21.90;12.70;;;;;;;;;;5023166;28;20146;-57
2022/05/01 02:39:02;;;;;;;19.65;11.85;;;;;;;;;;5022726;28;20091;-58
2022/05/01 02:41:28;;;;;;;18.45;12.45;;;;;;;;;;5023136;28;20077;-58
2022/05/01 02:43:56;;;;;;;22.55;12.85;;;;;;;;;;5023158;28;20446;-58
2022/05/01 02:46:22;;;;;;;21.38;12.65;;;;;;;;;;5023462;28;20045;-57
2022/05/01 02:48:49;;;;;;;17.83;11.40;;;;;;;;;;5024012;28;20748;-58
2022/05/01 02:51:15;;;;;;;18.90;12.52;;;;;;;;;;5026938;28;20050;-57
2022/05/01 02:53:43;;;;;;;21.88;12.90;;;;;;;;;;5025697;28;20041;-58
2022/05/01 02:56:09;;;;;;;19.85;12.18;;;;;;;;;;5008306;28;20088;-58
2022/05/01 02:58:35;;;;;;;18.50;11.82;;;;;;;;;;5026343;28;20064;-58
2022/05/01 03:01:01;;;;;;;19.60;11.95;;;;;;;;;;5026947;28;20041;-58
2022/05/01 03:03:28;;;;;;;17.10;11.05;;;;;;;;;;5027132;28;20115;-58
2022/05/01 03:05:56;;;;;;;20.92;11.52;;;;;;;;;;5026551;28;20068;-57
2022/05/01 03:08:22;;;;;;;15.77;10.35;;;;;;;;;;5026021;28;20582;-58
2022/05/01 03:10:48;;;;;;;16.65;10.93;;;;;;;;;;5025565;28;20132;-57
2022/05/01 03:13:15;;;;;;;15.50;10.20;;;;;;;;;;5026717;28;20119;-57
2022/05/01 03:15:41;;;;;;;16.52;9.80;;;;;;;;;;5026285;28;20048;-58
2022/05/01 03:23:37;;;;;;;14.93;10.05;;;;;;;;;;5008489;28;20144;-58
2022/05/01 03:26:04;;;;;;;16.60;10.82;;;;;;;;;;5025555;28;20053;-58
2022/05/01 03:28:31;;;;;;;19.83;11.45;;;;;;;;;;5025478;28;20482;-58
2022/05/01 03:30:57;;;;;;;16.88;10.55;;;;;;;;;;5026657;28;20144;-57
2022/05/01 03:33:23;;;;;;;19.55;11.57;;;;;;;;;;5026284;28;20056;-58
2022/05/01 03:35:50;;;;;;;19.77;11.52;;;;;;;;;;5025903;28;20049;-57
2022/05/01 03:38:17;;;;;;;16.45;10.98;;;;;;;;;;5026029;28;20045;-57
2022/05/01 03:40:47;;;;;;;16.30;11.23;;;;;;;;;;5025137;28;20037;-58
2022/05/01 03:43:15;;;;;;;18.58;10.80;;;;;;;;;;5025402;28;20049;-58
2022/05/01 03:45:41;;;;;;;20.33;11.82;;;;;;;;;;5008080;28;20041;-57
2022/05/01 03:48:08;;;;;;;19.35;11.85;;;;;;;;;;5025917;28;20041;-58
2022/05/01 03:50:35;;;;;;;20.08;12.05;;;;;;;;;;5008314;28;20042;-58
2022/05/01 03:53:04;;;;;;;17.75;11.00;;;;;;;;;;5025811;28;20099;-58
2022/05/01 03:55:31;;;;;;;18.58;11.77;;;;;;;;;;5024760;28;20539;-58
2022/05/01 03:57:58;;;;;;;20.70;12.38;;;;;;;;;;5025313;28;20157;-58
2022/05/01 04:00:25;;;;;;;22.10;12.52;;;;;;;;;;5024987;28;20057;-58
2022/05/01 04:02:52;;;;;;;18.75;12.07;;;;;;;;;;5025494;28;20049;-58
2022/05/01 04:05:18;;;;;;;21.02;12.32;;;;;;;;;;5026009;28;20128;-57
2022/05/01 04:07:44;;;;;;;19.70;11.43;;;;;;;;;;5025328;28;20064;-58
2022/05/01 04:10:11;;;;;;;19.77;11.77;;;;;;;;;;5005866;28;20053;-58
2022/05/01 04:12:38;;;;;;;17.00;11.13;;;;;;;;;;5024958;28;20455;-57
2022/05/01 04:15:07;;;;;;;20.17;11.30;;;;;;;;;;5025805;28;20124;-58
2022/05/01 04:17:39;;;;;;;25.58;13.02;;;;;;;;;;5025082;28;20055;-58
2022/05/01 04:20:08;;;;;;;24.92;12.93;;;;;;;;;;5025401;28;20045;-57
2022/05/01 04:22:38;;;;;;;20.85;12.45;;;;;;;;;;5024539;28;20124;-58
2022/05/01 04:25:05;;;;;;;19.00;11.45;;;;;;;;;;5024430;28;20045;-58
2022/05/01 04:27:31;;;;;;;21.58;12.80;;;;;;;;;;5024738;28;20411;-58
2022/05/01 04:29:58;;;;;;;21.73;13.35;;;;;;;;;;5025249;28;20037;-58
2022/05/01 04:32:24;;;;;;;20.05;11.75;;;;;;;;;;5025041;28;20037;-57
2022/05/01 04:34:51;;;;;;;23.85;13.63;;;;;;;;;;5024780;28;20099;-58
2022/05/01 04:37:17;;;;;;;23.35;12.75;;;;;;;;;;5024204;28;20053;-57
2022/05/01 04:39:43;;;;;;;20.80;12.20;;;;;;;;;;5023760;28;20046;-58
2022/05/01 04:42:09;;;;;;;19.60;10.63;;;;;;;;;;5007091;28;20045;-58
2022/05/01 04:44:36;;;;;;;21.55;12.77;;;;;;;;;;5024413;28;20049;-58
2022/05/01 04:47:02;;;;;;;23.23;12.13;;;;;;;;;;5024696;28;20045;-58
2022/05/01 04:49:29;;;;;;;18.25;11.57;;;;;;;;;;5025012;28;20042;-57
2022/05/01 04:51:55;;;;;;;20.38;11.90;;;;;;;;;;5024441;28;20418;-58
2022/05/01 04:54:21;;;;;;;20.23;11.82;;;;;;;;;;5023462;28;20432;-58
2022/05/01 04:57:06;;;;;;;20.17;12.25;;;;;;;;;;5024180;28;20045;-58
2022/05/01 04:59:32;;;;;;;19.83;11.80;;;;;;;;;;5024046;28;20117;-57
2022/05/01 05:01:58;;;;;;;16.27;9.60;;;;;;;;;;5024464;28;20120;-58
2022/05/01 05:04:26;;;;;;;18.25;11.27;;;;;;;;;;5024108;28;20100;-58
2022/05/01 05:06:54;;;;;;;19.60;11.45;;;;;;;;;;5023945;28;20041;-58
2022/05/01 05:12:07;;;;;;;19.42;11.30;;;;;;;;;;5024031;28;20645;-57
2022/05/01 05:14:33;;;;;;;19.40;11.95;;;;;;;;;;5023829;28;20077;-58
2022/05/01 05:17:01;;;;;;;19.95;12.40;;;;;;;;;;5023938;28;20080;-58
2022/05/01 05:19:27;;;;;;;19.30;11.85;;;;;;;;;;5024320;28;20402;-58
2022/05/01 05:21:53;;;;;;;23.25;12.40;;;;;;;;;;5040659;28;20115;-58
2022/05/01 05:24:19;;;;;;;20.38;11.77;;;;;;;;;;5027589;28;20042;-58
2022/05/01 05:26:46;;;;;;;17.88;11.52;;;;;;;;;;5023181;28;20110;-58
2022/05/01 05:29:12;;;;;;;21.92;12.45;;;;;;;;;;5043122;28;20125;-58
2022/05/01 05:31:38;;;;;;;17.42;12.00;;;;;;;;;;5043226;28;20049;-58
2022/05/01 05:34:04;;;;;;;17.52;11.43;;;;;;;;;;5043220;28;20095;-57
2022/05/01 05:36:31;;;;;;;19.70;12.20;;;;;;;;;;5042877;28;20100;-58
2022/05/01 05:38:57;;;;;;;30.50;14.15;;;;;;;;;;5042846;28;20067;-58
2022/05/01 05:41:23;;;;;;;19.58;12.57;;;;;;;;;;5043206;28;20055;-58
2022/05/01 05:43:49;;;;;;;20.00;12.60;;;;;;;;;;5042838;28;20466;-57
2022/05/01 05:46:15;;;;;;;18.42;11.27;;;;;;;;;;5028883;28;20128;-58
2022/05/01 05:48:41;;;;;;;18.20;12.00;;;;;;;;;;5023836;28;20546;-58
2022/05/01 05:51:07;;;;;;;23.13;12.18;;;;;;;;;;5023902;28;20053;-58
2022/05/01 05:53:33;;;;;;;20.48;12.15;;;;;;;;;;5023034;28;20041;-58
2022/05/01 05:56:00;;;;;;;20.65;12.65;;;;;;;;;;5022653;28;20102;-58
2022/05/01 05:58:26;;;;;;;19.15;12.15;;;;;;;;;;5042925;28;20754;-57
2022/05/01 06:00:52;;;;;;;21.83;13.50;;;;;;;;;;5036822;28;20125;-58
2022/05/01 06:03:19;;;;;;;20.27;12.10;;;;;;;;;;5023449;28;20045;-57
2022/05/01 06:05:46;;;;;;;17.95;11.15;;;;;;;;;;5023598;28;20045;-57
2022/05/01 06:08:12;;;;;;;17.55;11.35;;;;;;;;;;5023930;28;20042;-58
2022/05/01 06:10:38;;;;;;;18.50;11.73;;;;;;;;;;5022300;28;20057;-57
2022/05/01 06:13:05;;;;;;;20.33;11.40;;;;;;;;;;5023133;28;20045;-57
2022/05/01 06:15:31;;;;;;;22.17;11.68;;;;;;;;;;5022343;28;20813;-58
2022/05/01 06:17:57;;;;;;;19.13;11.07;;;;;;;;;;5021143;28;20398;-57
2022/05/01 06:20:23;;;;;;;19.40;10.48;;;;;;;;;;5021160;28;20175;-57
2022/05/01 06:22:50;;;;;;;18.33;10.55;;;;;;;;;;5020597;28;20320;-58
2022/05/01 06:25:16;;;;;;;15.88;9.32;;;;;;;;;;5023137;28;20091;-58
2022/05/01 06:27:43;;;;;;;17.00;9.85;;;;;;;;;;5024101;28;20120;-58
2022/05/01 06:30:11;;;;;;;15.05;9.10;;;;;;;;;;5024916;28;20502;-58
2022/05/01 06:32:38;;;;;;;16.13;9.15;;;;;;;;;;5024232;28;20832;-58
2022/05/01 06:35:06;;;;;;;15.18;8.00;;;;;;;;;;5024765;28;20080;-58
2022/05/01 06:37:32;;;;;;;17.27;8.50;;;;;;;;;;5024517;28;20042;-58
2022/05/01 06:39:58;;;;;;;14.13;7.97;;;;;;;;;;5023038;28;20052;-58
2022/05/01 06:42:25;;;;;;;12.43;8.00;;;;;;;;;;5006568;28;20049;-58
2022/05/01 06:44:51;;;;;;;13.40;7.25;;;;;;;;;;5024394;28;20045;-58
2022/05/01 06:47:17;;;;;;;12.50;7.53;;;;;;;;;;5024607;28;20049;-58
2022/05/01 06:49:43;;;;;;;12.13;7.50;;;;;;;;;;5024351;28;20041;-58
2022/05/01 06:52:10;;;;;;;14.45;8.40;;;;;;;;;;5024104;28;20046;-58
2022/05/01 06:54:36;;;;;;;12.63;8.02;;;;;;;;;;5023520;28;20045;-58
2022/05/01 06:57:02;;;;;;;13.05;7.32;;;;;;;;;;5024081;28;20475;-58
2022/05/01 06:59:28;;;;;;;10.82;6.88;;;;;;;;;;5042173;28;20164;-57
2022/05/01 07:01:54;;;;;;;9.93;6.32;;;;;;;;;;5043472;28;20057;-58
2022/05/01 07:04:20;;;;;;;11.57;6.93;;;;;;;;;;5043633;28;20044;-58
2022/05/01 07:06:46;;;;;;;12.02;6.93;;;;;;;;;;5044153;28;20045;-58
2022/05/01 07:09:13;;;;;;;9.75;6.32;;;;;;;;;;5043228;28;20057;-58
2022/05/01 07:11:39;;;;;;;11.02;5.07;;;;;;;;;;5043013;28;20421;-57
2022/05/01 07:14:06;;;;;;;9.07;4.85;;;;;;;;;;5043572;28;20045;-57
2022/05/01 07:16:32;;;;;;;11.98;5.63;;;;;;;;;;5035598;28;20040;-58
2022/05/01 07:18:58;;;;;;;8.25;6.50;;;;;;;;;;5040665;28;20047;-57
2022/05/01 07:21:24;;;;;;;8.82;4.60;;;;;;;;;;5043828;28;20083;-57
2022/05/01 07:23:50;;;;;;;9.20;4.40;;;;;;;;;;5034159;28;20600;-57
2022/05/01 07:26:18;;;;;;;6.75;4.63;;;;;;;;;;5023341;28;20049;-57
2022/05/01 07:28:44;;;;;;;9.63;5.13;;;;;;;;;;5023271;28;20049;-57
2022/05/01 07:31:10;;;;;;;12.98;4.93;;;;;;;;;;5024087;28;20060;-57
2022/05/01 07:33:37;;;;;;;7.45;4.60;;;;;;;;;;5023671;28;20422;-57
2022/05/01 07:36:03;;;;;;;7.85;4.55;;;;;;;;;;5022606;28;20049;-58
2022/05/01 07:38:29;;;;;;;8.23;4.95;;;;;;;;;;5023724;28;20122;-59
2022/05/01 07:40:55;;;;;;;8.02;4.70;;;;;;;;;;5023174;28;20049;-57
2022/05/01 07:43:22;;;;;;;6.45;4.15;;;;;;;;;;5023540;28;20525;-58
2022/05/01 07:45:49;;;;;;;7.03;4.45;;;;;;;;;;5023576;28;20041;-57
2022/05/01 07:48:15;;;;;;;6.93;3.85;;;;;;;;;;5023853;28;20137;-57
2022/05/01 07:50:41;;;;;;;9.80;4.68;;;;;;;;;;5023714;28;20073;-57
2022/05/01 07:53:08;;;;;;;8.88;4.60;;;;;;;;;;5023037;28;20045;-54
2022/05/01 07:55:34;;;;;;;7.20;4.78;;;;;;;;;;5021787;28;20060;-57
2022/05/01 07:58:00;;;;;;;8.25;5.03;;;;;;;;;;5023098;28;20045;-58
2022/05/01 08:00:26;;;;;;;9.65;4.93;;;;;;;;;;5023612;28;20041;-57
2022/05/01 08:05:41;;;;;;;7.97;5.25;;;;;;;;;;5022430;28;20053;-57
2022/05/01 08:08:07;;;;;;;11.18;5.22;;;;;;;;;;5023326;28;20096;-58
2022/05/01 08:10:34;;;;;;;9.85;4.97;;;;;;;;;;5021809;28;20046;-58
2022/05/01 08:13:00;;;;;;;10.57;5.70;;;;;;;;;;5023261;28;20195;-59
2022/05/01 08:15:26;;;;;;;8.52;5.15;;;;;;;;;;5014119;28;20055;-57
2022/05/01 08:17:52;;;;;;;11.35;5.32;;;;;;;;;;5042272;28;20375;-58
2022/05/01 08:23:03;;;;;;;11.73;5.38;;;;;;;;;;5042338;28;20044;-58
2022/05/01 08:25:30;;;;;;;8.63;5.43;;;;;;;;;;5041689;28;20439;-58
2022/05/01 08:27:56;;;;;;;11.93;5.75;;;;;;;;;;5034314;28;20045;-58
2022/05/01 08:30:22;;;;;;;11.50;5.55;;;;;;;;;;5042698;28;20487;-58
2022/05/01 08:32:48;;;;;;;9.80;5.80;;;;;;;;;;5041686;28;20045;-58
2022/05/01 08:35:14;;;;;;;10.70;5.30;;;;;;;;;;5043166;28;20045;-58
2022/05/01 08:37:40;;;;;;;13.90;6.13;;;;;;;;;;5041944;28;20049;-58
2022/05/01 08:40:07;;;;;;;13.32;5.63;;;;;;;;;;5041259;28;20048;-58
2022/05/01 08:42:36;;;;;;;8.32;4.50;;;;;;;;;;5041935;28;20055;-58
2022/05/01 08:45:03;;;;;;;10.05;4.30;;;;;;;;;;5042167;28;20507;-58
2022/05/01 08:47:43;;;;;;;7.10;3.72;;;;;;;;;;5039972;28;20040;-57
2022/05/01 08:50:10;;;;;;;7.68;4.15;;;;;;;;;;5038070;28;20491;-57
2022/05/01 08:52:38;;;;;;;8.82;4.03;;;;;;;;;;5039616;28;20045;-58
2022/05/01 08:55:05;;;;;;;8.70;4.15;;;;;;;;;;5043968;28;20119;-58
2022/05/01 08:57:33;;;;;;;9.88;3.95;;;;;;;;;;5044111;28;20052;-58
2022/05/01 09:00:00;;;;;;;9.52;4.82;;;;;;;;;;5026055;28;20059;-58
2022/05/01 09:02:26;;;;;;;7.88;4.63;;;;;;;;;;5044416;28;20044;-58
2022/05/01 09:04:53;;;;;;;11.40;4.57;;;;;;;;;;5044497;28;20041;-58
2022/05/01 09:07:19;;;;;;;9.20;4.38;;;;;;;;;;5044085;28;20049;-58
2022/05/01 09:09:45;;;;;;;7.97;4.30;;;;;;;;;;5042658;28;20487;-58
2022/05/01 09:14:56;;;;;;;9.15;4.60;;;;;;;;;;5043938;28;20052;-58
2022/05/01 09:17:24;;;;;;;7.55;4.25;;;;;;;;;;5044225;28;20037;-58
2022/05/01 09:19:53;;;;;;;7.38;3.85;;;;;;;;;;5043317;28;20047;-58
2022/05/01 09:22:20;;;;;;;9.23;3.90;;;;;;;;;;5044444;28;20094;-58
2022/05/01 09:24:52;;;;;;;6.75;4.38;;;;;;;;;;5042808;28;20049;-58
2022/05/01 09:27:27;;;;;;;11.82;4.53;;;;;;;;;;5025870;28;20820;-58
2022/05/01 09:30:09;;;;;;;7.35;4.05;;;;;;;;;;5043713;28;20094;-58
2022/05/01 09:32:37;;;;;;;6.05;4.10;;;;;;;;;;5043735;28;20127;-58
2022/05/01 09:35:03;;;;;;;13.18;5.47;;;;;;;;;;5043927;28;20041;-58
2022/05/01 09:37:29;;;;;;;7.18;4.40;;;;;;;;;;5043317;28;20087;-58
2022/05/01 09:39:55;;;;;;;8.35;4.47;;;;;;;;;;5043333;28;20123;-58
2022/05/01 09:42:25;;;;;;;8.63;4.10;;;;;;;;;;5043750;28;20105;-58
2022/05/01 09:45:05;;;;;;;7.20;4.45;;;;;;;;;;5043929;28;20124;-57
2022/05/01 09:47:38;;;;;;;7.28;4.05;;;;;;;;;;5043240;28;20045;-58
2022/05/01 09:50:05;;;;;;;7.28;4.03;;;;;;;;;;5043712;28;20041;-58
2022/05/01 09:52:50;;;;;;;6.72;4.28;;;;;;;;;;5043536;28;20045;-58
2022/05/01 09:55:16;;;;;;;7.30;4.18;;;;;;;;;;5042953;28;20060;-58
2022/05/01 09:57:42;;;;;;;9.38;4.10;;;;;;;;;;5042738;28;20037;-58
2022/05/01 10:00:09;;;;;;;8.45;4.20;;;;;;;;;;5046878;28;20111;-58
2022/05/01 10:02:35;;;;;;;11.95;4.65;;;;;;;;;;5047029;28;20048;-57
2022/05/01 10:05:03;;;;;;;14.18;4.15;;;;;;;;;;5047461;28;20124;-58
2022/05/01 10:07:32;;;;;;;8.30;4.28;;;;;;;;;;5029388;28;20060;-59
2022/05/01 10:09:59;;;;;;;11.18;4.10;;;;;;;;;;5046884;28;20045;-58
2022/05/01 10:12:27;;;;;;;8.38;4.38;;;;;;;;;;5030017;28;20693;-57
2022/05/01 10:14:54;;;;;;;7.03;4.70;;;;;;;;;;5046941;28;20041;-58
2022/05/01 10:17:20;;;;;;;8.15;4.03;;;;;;;;;;5047710;28;20103;-58
2022/05/01 10:19:48;;;;;;;7.15;4.35;;;;;;;;;;5046597;28;20111;-58
2022/05/01 10:22:14;;;;;;;7.70;4.43;;;;;;;;;;5047319;28;20510;-58
2022/05/01 10:24:40;;;;;;;10.30;3.88;;;;;;;;;;5028661;28;20501;-58
2022/05/01 10:27:29;;;;;;;5.65;4.05;;;;;;;;;;5046725;28;20091;-58
2022/05/01 10:32:47;;;;;;;6.30;3.00;;;;;;;;;;5046176;28;19920;-58
2022/05/01 10:35:15;;;;;;;5.22;3.67;;;;;;;;;;5047130;28;20413;-58
2022/05/01 10:37:41;;;;;;;6.45;3.60;;;;;;;;;;5047115;28;20041;-58
2022/05/01 10:40:07;;;;;;;6.30;4.10;;;;;;;;;;5046455;28;20051;-58
2022/05/01 10:42:38;;;;;;;5.82;3.80;;;;;;;;;;5046355;28;20045;-58
2022/05/01 10:45:25;;;;;;;7.13;3.97;;;;;;;;;;5047147;28;20049;-58
2022/05/01 10:47:52;;;;;;;6.25;3.65;;;;;;;;;;5028688;28;20597;-58
2022/05/01 10:50:25;;;;;;;6.00;3.08;;;;;;;;;;5046306;28;20068;-57
2022/05/01 10:53:02;;;;;;;7.75;3.70;;;;;;;;;;5046507;28;20145;-58
2022/05/01 10:55:41;;;;;;;6.20;3.17;;;;;;;;;;5046873;28;20044;-58
2022/05/01 10:58:18;;;;;;;6.40;2.67;;;;;;;;;;5046132;28;20049;-57
2022/05/01 11:00:46;;;;;;;3.53;2.22;;;;;;;;;;5046811;28;20041;-58
2022/05/01 11:03:22;;;;;;;4.38;2.67;;;;;;;;;;5046527;28;20120;-57
2022/05/01 11:05:52;;;;;;;9.32;3.20;;;;;;;;;;5046227;28;20540;-58
2022/05/01 11:08:20;;;;;;;8.80;4.40;;;;;;;;;;5045753;28;20140;-58
2022/05/01 11:10:47;;;;;;;9.15;4.22;;;;;;;;;;5045643;28;20138;-58
2022/05/01 11:13:16;;;;;;;7.70;4.23;;;;;;;;;;5046516;28;20124;-58
2022/05/01 11:15:50;;;;;;;6.88;4.38;;;;;;;;;;5045356;28;20314;-58
2022/05/01 11:18:17;;;;;;;7.95;3.97;;;;;;;;;;5046352;28;20542;-58
2022/05/01 11:20:43;;;;;;;9.27;4.43;;;;;;;;;;5045891;28;20513;-58
2022/05/01 11:23:29;;;;;;;6.55;4.70;;;;;;;;;;5045404;28;20048;-58
2022/05/01 11:26:05;;;;;;;6.78;4.35;;;;;;;;;;5046534;28;20052;-58
2022/05/01 11:28:44;;;;;;;10.68;4.50;;;;;;;;;;5045976;28;20037;-58
2022/05/01 11:31:29;;;;;;;10.65;4.78;;;;;;;;;;5045120;28;20070;-58
2022/05/01 11:34:22;;;;;;;8.50;4.30;;;;;;;;;;5046041;28;20138;-58
2022/05/01 11:36:54;;;;;;;9.45;4.13;;;;;;;;;;5045124;28;20465;-58
2022/05/01 11:39:21;;;;;;;6.55;3.58;;;;;;;;;;5045285;28;20045;-58
2022/05/01 11:42:00;;;;;;;5.50;2.95;;;;;;;;;;5045355;28;20091;-58
2022/05/01 11:44:28;;;;;;;5.68;3.67;;;;;;;;;;5045518;28;20045;-58
2022/05/01 11:46:55;;;;;;;7.17;4.00;;;;;;;;;;5045290;28;20580;-58
2022/05/01 11:49:21;;;;;;;6.90;3.65;;;;;;;;;;5045912;28;20045;-57
2022/05/01 11:51:48;;;;;;;8.27;3.65;;;;;;;;;;5045321;28;20106;-58
2022/05/01 11:54:15;;;;;;;6.03;3.58;;;;;;;;;;5044917;28;20044;-58
2022/05/01 12:02:25;;;;;;;7.97;4.18;;;;;;;;;;5045547;28;20080;-58
2022/05/01 12:04:51;;;;;;;4.65;3.67;;;;;;;;;;5045441;28;20041;-58
2022/05/01 12:07:18;;;;;;;9.05;3.72;;;;;;;;;;5045650;28;20057;-58
2022/05/01 12:09:47;;;;;;;7.95;4.28;;;;;;;;;;5043431;28;20053;-58
2022/05/01 12:12:14;;;;;;;9.70;4.15;;;;;;;;;;5045452;28;20060;-58
2022/05/01 12:14:41;;;;;;;7.25;3.90;;;;;;;;;;5045077;28;20120;-58
2022/05/01 12:17:15;;;;;;;6.82;3.78;;;;;;;;;;5045100;28;20505;-58
2022/05/01 12:19:43;;;;;;;7.00;3.80;;;;;;;;;;5044213;28;20053;-58
2022/05/01 12:22:16;;;;;;;7.43;3.92;;;;;;;;;;5044598;28;20121;-58
2022/05/01 12:24:44;;;;;;;7.82;3.40;;;;;;;;;;5044331;28;20036;-58
2022/05/01 12:27:11;;;;;;;5.13;3.60;;;;;;;;;;5027172;28;20051;-58
2022/05/01 12:29:41;;;;;;;8.57;3.40;;;;;;;;;;5044272;28;20379;-58
2022/05/01 12:32:09;;;;;;;6.38;3.50;;;;;;;;;;5045160;28;20051;-58
2022/05/01 12:34:36;;;;;;;;;;;;;;;;;;5045251;28;20127;-58
2022/05/01 12:37:04;;;;;;;9.57;3.80;;;;;;;;;;5044703;28;19925;-58
2022/05/01 12:39:31;;;;;;;9.23;3.97;;;;;;;;;;5043902;28;20224;-58
2022/05/01 12:45:08;;;;;;;7.95;3.63;;;;;;;;;;5044557;28;20047;-57
2022/05/01 12:47:36;;;;;;;7.82;3.65;;;;;;;;;;5044513;28;20057;-58
2022/05/01 12:50:03;;;;;;;6.85;3.75;;;;;;;;;;5044813;28;20041;-58
2022/05/01 12:52:30;;;;;;;8.18;3.88;;;;;;;;;;5044740;28;20087;-60
2022/05/01 12:55:14;;;;;;;9.07;4.25;;;;;;;;;;5043821;28;20041;-58
2022/05/01 12:57:41;;;;;;;6.65;4.13;;;;;;;;;;5044010;28;20509;-57
2022/05/01 13:00:08;;;;;;;8.23;3.47;;;;;;;;;;5044179;28;20080;-58
2022/05/01 13:02:34;;;;;;;7.77;3.73;;;;;;;;;;5044133;28;20134;-58
2022/05/01 13:05:03;;;;;;;6.53;3.70;;;;;;;;;;5043754;28;20045;-58
2022/05/01 13:07:30;;;;;;;6.63;3.50;;;;;;;;;;5026691;28;20048;-58
2022/05/01 13:09:56;;;;;;;4.53;3.15;;;;;;;;;;5043594;28;20100;-58
2022/05/01 13:12:30;;;;;;;5.78;3.58;;;;;;;;;;5043907;28;20252;-58
2022/05/01 13:14:58;;;;;;;6.70;3.75;;;;;;;;;;5043703;28;20049;-58
2022/05/01 13:17:27;;;;;;;7.20;3.88;;;;;;;;;;5044128;28;20123;-58
2022/05/01 13:19:54;;;;;;;9.18;3.63;;;;;;;;;;5043830;28;20111;-58
2022/05/01 13:22:21;;;;;;;6.28;3.20;;;;;;;;;;5043487;28;20045;-58
2022/05/01 13:24:52;;;;;;;6.85;3.60;;;;;;;;;;5042606;28;20048;-58
2022/05/01 13:27:18;;;;;;;5.53;3.30;;;;;;;;;;5044309;28;20051;-58
2022/05/01 13:29:45;;;;;;;5.90;3.28;;;;;;;;;;5043374;28;20452;-58
2022/05/01 13:32:14;;;;;;;8.13;4.47;;;;;;;;;;5043851;28;20039;-58
2022/05/01 13:34:47;;;;;;;4.15;3.15;;;;;;;;;;5042426;28;20072;-58
2022/05/01 13:37:13;;;;;;;5.93;3.13;;;;;;;;;;5043504;28;20052;-58
2022/05/01 13:45:10;;;;;;;5.32;2.65;;;;;;;;;;5025866;28;20049;-58
2022/05/01 13:47:37;;;;;;;7.57;3.40;;;;;;;;;;5043200;28;20099;-58
2022/05/01 13:50:04;;;;;;;5.07;3.05;;;;;;;;;;5043923;28;20099;-58
2022/05/01 13:52:30;;;;;;;10.55;3.20;;;;;;;;;;5041645;28;20674;-58
2022/05/01 13:54:57;;;;;;;8.85;3.80;;;;;;;;;;5043736;28;20045;-58
2022/05/01 13:57:24;;;;;;;6.95;3.28;;;;;;;;;;5043614;28;20515;-58
2022/05/01 13:59:50;;;;;;;6.82;3.15;;;;;;;;;;5042805;28;20106;-58
2022/05/01 14:02:17;;;;;;;6.55;3.33;;;;;;;;;;5043490;28;20681;-58
2022/05/01 14:04:45;;;;;;;5.53;3.20;;;;;;;;;;5042892;28;20041;-58
2022/05/01 14:07:11;;;;;;;5.30;3.25;;;;;;;;;;5043791;28;20059;-58
2022/05/01 14:09:37;;;;;;;7.47;2.80;;;;;;;;;;5042068;28;20147;-58
2022/05/01 14:12:05;;;;;;;5.20;2.97;;;;;;;;;;5043358;28;20506;-58
2022/05/01 14:14:32;;;;;;;;;;;;;;;;;;5043370;28;20051;-58
2022/05/01 14:16:58;;;;;;;5.57;3.30;;;;;;;;;;5043309;28;19924;-58
2022/05/01 14:19:28;;;;;;;7.60;2.90;;;;;;;;;;5043407;28;20055;-58
2022/05/01 14:21:56;;;;;;;5.72;2.92;;;;;;;;;;5043394;28;20051;-58
2022/05/01 14:24:22;;;;;;;6.15;2.75;;;;;;;;;;5042217;28;20060;-58
2022/05/01 14:26:48;;;;;;;4.13;2.65;;;;;;;;;;5042551;28;20431;-58
2022/05/01 14:29:15;;;;;;;4.25;2.95;;;;;;;;;;5025216;28;20049;-58
2022/05/01 14:31:43;;;;;;;4.93;3.00;;;;;;;;;;5042914;28;20056;-58
2022/05/01 14:34:26;;;;;;;4.32;3.25;;;;;;;;;;5042834;28;20837;-58
2022/05/01 14:36:56;;;;;;;10.98;3.30;;;;;;;;;;5042722;28;20475;-58
2022/05/01 14:39:24;;;;;;;5.78;3.25;;;;;;;;;;5042312;28;20183;-57
2022/05/01 14:41:51;;;;;;;9.38;3.45;;;;;;;;;;5042377;28;20850;-58
2022/05/01 14:44:28;;;;;;;3.97;2.30;;;;;;;;;;5042698;28;20044;-58
2022/05/01 14:46:56;;;;;;;7.13;2.97;;;;;;;;;;5046319;28;20372;-58
2022/05/01 14:49:31;;;;;;;3.90;2.63;;;;;;;;;;5047134;28;20053;-58
2022/05/01 14:51:59;;;;;;;5.75;2.70;;;;;;;;;;5046615;28;20398;-58
2022/05/01 14:54:27;;;;;;;3.78;2.38;;;;;;;;;;5046407;28;20071;-57
2022/05/01 14:56:56;;;;;;;7.72;3.05;;;;;;;;;;5046066;28;20491;-58
2022/05/01 15:07:39;;;;;;;5.70;2.35;;;;;;;;;;5045381;28;20553;-58
2022/05/01 15:10:05;;;;;;;5.40;2.85;;;;;;;;;;5045979;28;20768;-57
2022/05/01 15:12:31;;;;;;;6.05;2.63;;;;;;;;;;5046275;28;20491;-58
2022/05/01 15:14:57;;;;;;;5.90;2.97;;;;;;;;;;5046420;28;20091;-58
2022/05/01 15:17:26;;;;;;;9.57;2.85;;;;;;;;;;5045822;28;20048;-58
2022/05/01 15:19:59;;;;;;;7.43;2.63;;;;;;;;;;5045769;28;20073;-58
2022/05/01 15:22:38;;;;;;;4.60;2.60;;;;;;;;;;5045928;28;20733;-58
2022/05/01 15:25:08;;;;;;;4.10;2.58;;;;;;;;;;5045930;28;20173;-57
2022/05/01 15:27:34;;;;;;;6.22;2.58;;;;;;;;;;5046234;28;20059;-58